Cataract, Indiana
Current Conditions -  °F | °C
As of 8:53 PM on Wednesday 26 Nov 2014 (Local Time) from KBMG Reporting Station
Overcast Overcast  
Wind Chill: 28°   Ceiling: 6000
Heat Index: 33°   Visibility: 10mi
Dew Point: 26°   Wind: 6mph
Humidity: 75%   Direction: 60°ENE
Pressure: 30.05"   Gusts: NA
Location:  39.3008°N, 86.8112°W
Report Text: KBMG 270153Z 06005KT 10SM OVC060 01/M03 A3005 RMK AO2 SLP184 T00061033
Loading
Personal Weather Stations






























Interactive Weather Map New forecast layout! Learn more

10-Day Weather Forecast

Advertisements
Track Severe Weather on mobile